Time;durP1;ratioP1;P1;durP2;ratioP2;P2;SDS_P1;SDS_P2;PMS_P1;PMS_P2;Temp;Humidity;BMP_temperature;BMP_pressure;BME280_temperature;BME280_humidity;BME280_pressure;Samples;Min_cycle;Max_cycle;Signal;HPM_P1;HPM_P2
2022/01/27 00:04:42;;;;;;;77.30;36.20;;;;;;;-4.58;70.55;99734.98;108853;1277;139497;-54
2022/01/27 00:07:10;;;;;;;83.00;35.70;;;;;;;-4.73;70.12;99732.59;109128;1277;22457;-54
2022/01/27 00:10:09;;;;;;;81.10;38.90;;;;;;;-4.87;70.32;99734.02;109085;1277;23237;-54
2022/01/27 00:12:36;;;;;;;82.40;36.10;;;;;;;-4.99;70.73;99730.33;108975;1277;138678;-54
2022/01/27 00:15:10;;;;;;;78.60;37.50;;;;;;;-5.09;70.57;99734.20;109080;1277;22637;-54
2022/01/27 00:17:43;;;;;;;84.10;37.30;;;;;;;-5.19;70.72;99737.33;108978;1277;138232;-54
2022/01/27 00:20:12;;;;;;;92.30;40.80;;;;;;;-5.28;70.83;99732.15;108866;1278;22535;-54
2022/01/27 00:22:42;;;;;;;91.00;37.60;;;;;;;-5.32;71.05;99731.89;109115;1274;139102;-54
2022/01/27 00:25:11;;;;;;;82.50;35.10;;;;;;;-5.40;70.97;99730.83;109406;1273;22542;-54
2022/01/27 00:27:38;;;;;;;82.00;36.10;;;;;;;-5.43;71.27;99735.23;109424;1274;22558;-54
2022/01/27 00:30:08;;;;;;;84.30;35.90;;;;;;;-5.47;71.39;99738.67;109195;1274;139375;-54
2022/01/27 00:32:35;;;;;;;86.60;36.40;;;;;;;-5.49;71.88;99735.18;109393;1274;22413;-54
2022/01/27 00:35:05;;;;;;;93.80;37.50;;;;;;;-5.51;71.92;99734.97;108968;1274;395671;-54
2022/01/27 00:39:17;;;;;;;90.90;37.60;;;;;;;-5.51;72.48;99723.45;101808;1310;545083;-55
2022/01/27 00:41:45;;;;;;;89.50;39.50;;;;;;;-5.51;72.92;99714.09;107981;1286;139255;-56
2022/01/27 00:44:14;;;;;;;83.60;37.80;;;;;;;-5.48;73.20;99718.73;108018;1289;22430;-55
2022/01/27 00:46:42;;;;;;;89.20;37.10;;;;;;;-5.45;73.45;99716.16;107760;1289;137340;-55
2022/01/27 00:49:10;;;;;;;81.80;37.00;;;;;;;-5.42;73.63;99717.39;107988;1289;23318;-55
2022/01/27 00:51:42;;;;;;;79.30;36.00;;;;;;;-5.37;73.86;99721.73;108004;1288;22489;-55
2022/01/27 00:54:19;;;;;;;78.70;35.70;;;;;;;-5.32;73.93;99718.58;107952;1286;137594;-55
2022/01/27 00:56:54;;;;;;;;;;;;;;;-5.30;74.12;99722.25;108299;1286;23761;-55
2022/01/27 00:59:40;;;;;;;68.10;31.50;;;;;;;-5.31;73.88;99717.22;108191;1285;124102;-56
2022/01/27 01:02:19;;;;;;;69.80;30.60;;;;;;;-5.29;74.10;99721.63;108238;1285;22500;-56
2022/01/27 01:04:58;;;;;;;77.00;34.60;;;;;;;-5.28;74.25;99725.63;108033;1286;137531;-56
2022/01/27 01:07:31;;;;;;;71.50;32.80;;;;;;;-5.30;74.00;99727.39;108239;1286;22467;-55
2022/01/27 01:15:36;;;;;;;71.40;33.50;;;;;;;-5.30;74.42;99727.78;108162;1287;22435;-55
2022/01/27 01:18:19;;;;;;;85.30;37.70;;;;;;;-5.31;74.38;99723.43;108166;1286;137246;-55
2022/01/27 01:32:10;;;;;;;84.10;33.50;;;;;;;-5.25;75.34;99714.56;108219;1286;23641;-56
2022/01/27 01:34:44;;;;;;;84.70;32.90;;;;;;;-5.21;75.38;99712.58;108039;1287;138368;-56
2022/01/27 01:37:17;;;;;;;83.20;33.10;;;;;;;-5.17;75.24;99712.16;108299;1286;22554;-55
2022/01/27 01:39:46;;;;;;;79.80;31.80;;;;;;;-5.13;75.31;99708.69;107170;1285;22824;-55
2022/01/27 01:42:14;;;;;;;78.50;32.70;;;;;;;-5.09;75.42;99706.01;103929;1286;138143;-56
2022/01/27 01:44:43;;;;;;;78.10;35.20;;;;;;;-5.05;75.33;99697.67;104165;1287;24246;-55
2022/01/27 01:47:11;;;;;;;82.10;34.00;;;;;;;-5.02;75.33;99691.27;104057;1286;137383;-55
2022/01/27 01:49:40;;;;;;;81.30;32.50;;;;;;;-4.99;75.22;99689.44;104191;1286;25382;-55
2022/01/27 01:52:08;;;;;;;68.60;28.80;;;;;;;-5.02;75.05;99681.75;104118;1286;25420;-55
2022/01/27 01:54:36;;;;;;;67.90;29.90;;;;;;;-5.00;74.82;99686.29;103908;1286;137754;-55
2022/01/27 01:57:05;;;;;;;59.70;28.10;;;;;;;-4.98;74.94;99696.40;108230;1285;22446;-56
2022/01/27 01:59:36;;;;;;;67.80;30.00;;;;;;;-4.96;74.82;99703.52;108236;1285;137791;-55
2022/01/27 02:02:04;;;;;;;70.70;30.00;;;;;;;-4.97;74.87;99701.48;108359;1285;22476;-55
2022/01/27 02:04:32;;;;;;;68.30;29.70;;;;;;;-4.93;74.72;99706.50;108225;1285;138375;-56
2022/01/27 02:07:03;;;;;;;57.90;27.80;;;;;;;-4.90;74.69;99707.50;108180;1285;22490;-56
2022/01/27 02:09:49;;;;;;;59.00;26.30;;;;;;;-4.88;74.80;99707.09;108059;1286;22500;-55
2022/01/27 02:18:01;;;;;;;50.30;24.30;;;;;;;-4.81;74.65;99684.96;108249;1286;137950;-56
2022/01/27 02:20:32;;;;;;;46.20;22.00;;;;;;;-4.80;74.63;99678.13;108362;1285;22489;-56
2022/01/27 02:23:00;;;;;;;55.80;24.80;;;;;;;-4.78;74.52;99678.41;108241;1285;138519;-56
2022/01/27 02:25:28;;;;;;;51.10;22.20;;;;;;;-4.76;74.61;99682.08;108367;1285;22473;-56
2022/01/27 02:27:56;;;;;;;55.50;22.60;;;;;;;-4.74;74.52;99678.15;108313;1285;22470;-56
2022/01/27 02:30:24;;;;;;;54.10;23.10;;;;;;;-4.71;74.45;99675.16;108278;1286;137964;-56
2022/01/27 02:32:52;;;;;;;51.00;23.00;;;;;;;-4.68;74.46;99678.91;108337;1285;22434;-56
2022/01/27 02:35:24;;;;;;;53.90;23.30;;;;;;;-4.65;74.53;99674.34;108138;1285;139288;-56
2022/01/27 02:37:52;;;;;;;51.60;24.20;;;;;;;-4.63;74.42;99667.78;108116;1286;22561;-57
2022/01/27 02:40:26;;;;;;;58.00;24.50;;;;;;;-4.57;74.21;99672.20;108312;1285;23381;-54
2022/01/27 02:42:54;;;;;;;52.40;22.60;;;;;;;-4.56;74.16;99673.29;108225;1286;137389;-55
2022/01/27 02:45:46;;;;;;;53.40;22.70;;;;;;;-4.56;73.93;99675.98;108326;1285;23293;-54
2022/01/27 02:48:14;;;;;;;55.10;20.30;;;;;;;-4.56;73.97;99677.90;107925;1286;137866;-54
2022/01/27 02:50:43;;;;;;;47.50;20.90;;;;;;;-4.57;73.79;99671.12;108282;1286;22447;-54
2022/01/27 02:53:11;;;;;;;49.00;20.00;;;;;;;-4.58;73.76;99674.58;108119;1286;138557;-54
2022/01/27 02:55:39;;;;;;;42.90;19.50;;;;;;;-4.56;73.80;99677.70;108321;1286;22589;-54
2022/01/27 02:58:08;;;;;;;43.40;19.10;;;;;;;-4.53;73.65;99680.59;108244;1285;22496;-54
2022/01/27 03:00:36;;;;;;;42.80;17.40;;;;;;;-4.51;73.59;99686.78;108242;1285;137762;-54
2022/01/27 03:03:04;;;;;;;43.50;17.60;;;;;;;-4.50;73.42;99685.31;108108;1285;23274;-54
2022/01/27 03:05:32;;;;;;;36.50;16.40;;;;;;;-4.49;73.41;99686.30;108250;1285;138288;-54
2022/01/27 03:08:00;;;;;;;38.10;16.20;;;;;;;-4.47;73.42;99674.90;108270;1286;22450;-55
2022/01/27 03:10:30;;;;;;;42.30;18.20;;;;;;;-4.46;73.23;99667.08;108229;1286;22471;-54
2022/01/27 03:13:00;;;;;;;37.50;16.40;;;;;;;-4.46;73.12;99661.29;108818;1280;138024;-54
2022/01/27 03:15:33;;;;;;;35.40;16.30;;;;;;;-4.47;73.28;99657.48;109022;1279;22454;-54
2022/01/27 03:18:01;;;;;;;40.10;17.60;;;;;;;-4.46;73.07;99650.86;108906;1279;139233;-54
2022/01/27 03:20:33;;;;;;;38.40;16.00;;;;;;;-4.46;73.00;99648.27;108970;1279;22518;-55
2022/01/27 03:23:01;;;;;;;34.10;16.70;;;;;;;-4.43;72.92;99643.77;108874;1279;138050;-54
2022/01/27 03:25:29;;;;;;;36.00;15.80;;;;;;;-4.42;72.95;99646.66;108939;1279;22469;-54
2022/01/27 03:27:57;;;;;;;33.50;14.00;;;;;;;-4.41;72.85;99653.29;108935;1280;22637;-54
2022/01/27 03:30:25;;;;;;;37.90;15.30;;;;;;;-4.40;72.83;99653.92;108878;1279;138773;-54
2022/01/27 03:32:53;;;;;;;39.70;15.00;;;;;;;-4.37;72.81;99649.88;109011;1280;22616;-55
2022/01/27 03:35:21;;;;;;;30.00;13.50;;;;;;;-4.33;72.94;99650.14;108856;1280;137485;-55
2022/01/27 03:37:48;;;;;;;33.60;14.00;;;;;;;-4.30;72.77;99642.22;108902;1277;22569;-54
2022/01/27 03:40:16;;;;;;;31.50;13.80;;;;;;;-4.29;72.72;99637.14;106884;1279;23016;-55
2022/01/27 03:42:51;;;;;;;30.00;13.30;;;;;;;-4.31;72.40;99628.42;104405;1280;137412;-54
2022/01/27 03:45:19;;;;;;;28.90;11.20;;;;;;;-4.35;72.06;99625.73;108918;1280;22524;-54
2022/01/27 03:47:47;;;;;;;25.60;11.90;;;;;;;-4.41;71.91;99623.84;108926;1278;138287;-54
2022/01/27 03:50:15;;;;;;;23.70;11.20;;;;;;;-4.46;71.68;99620.19;109038;1279;22404;-55
2022/01/27 03:52:43;;;;;;;23.80;9.90;;;;;;;-4.53;71.47;99616.31;108894;1280;138540;-56
2022/01/27 03:55:11;;;;;;;25.00;10.90;;;;;;;-4.61;71.32;99607.77;109052;1278;22565;-54
2022/01/27 03:57:39;;;;;;;28.40;11.80;;;;;;;-4.68;71.22;99608.84;109021;1279;22501;-54
2022/01/27 04:00:08;;;;;;;26.30;11.10;;;;;;;-4.75;71.00;99615.56;108770;1280;138925;-54
2022/01/27 04:03:03;;;;;;;22.00;11.20;;;;;;;-4.81;70.92;99618.52;108928;1280;23230;-54
2022/01/27 04:05:37;;;;;;;20.80;10.30;;;;;;;-4.87;70.82;99612.40;108734;1280;140188;-55
2022/01/27 04:08:09;;;;;;;18.20;9.00;;;;;;;-4.94;70.75;99609.36;109009;1280;22583;-55
2022/01/27 04:10:37;;;;;;;21.30;10.70;;;;;;;-5.00;70.90;99606.64;108899;1280;137379;-57
2022/01/27 04:13:06;;;;;;;20.30;10.00;;;;;;;-5.04;70.92;99605.46;108916;1280;22563;-54
2022/01/27 04:15:35;;;;;;;23.20;10.60;;;;;;;-5.09;70.76;99604.58;108566;1281;22526;-54
2022/01/27 04:18:03;;;;;;;21.10;9.60;;;;;;;-5.15;70.72;99601.63;108862;1280;139363;-54
2022/01/27 04:20:32;;;;;;;24.80;11.10;;;;;;;-5.23;70.60;99600.33;108999;1279;23228;-54
2022/01/27 04:23:00;;;;;;;25.40;11.90;;;;;;;-5.27;70.56;99603.52;108717;1280;139287;-54
2022/01/27 04:25:28;;;;;;;27.60;11.60;;;;;;;-5.33;70.37;99599.72;108864;1280;22460;-54
2022/01/27 04:28:01;;;;;;;26.80;11.20;;;;;;;-5.37;70.62;99593.06;108980;1278;22517;-54
2022/01/27 04:30:30;;;;;;;23.90;9.40;;;;;;;-5.40;70.54;99586.83;108903;1279;137796;-54
2022/01/27 04:33:01;;;;;;;17.90;7.10;;;;;;;-5.43;70.72;99582.16;108925;1279;22552;-54
2022/01/27 04:35:34;;;;;;;23.00;8.70;;;;;;;-5.44;70.65;99576.23;108877;1279;137993;-54
2022/01/27 04:43:34;;;;;;;63.80;25.20;;;;;;;-5.37;70.91;99578.76;108275;1286;22505;-54
2022/01/27 04:48:41;;;;;;;25.70;10.90;;;;;;;-5.32;70.97;99581.73;108232;1285;137801;-54
2022/01/27 04:51:13;;;;;;;24.60;10.10;;;;;;;-5.30;70.79;99582.66;108303;1285;22756;-55
2022/01/27 04:53:51;;;;;;;22.90;9.20;;;;;;;-5.31;70.68;99576.70;108161;1285;138455;-54
2022/01/27 04:56:21;;;;;;;21.60;8.60;;;;;;;-5.33;70.55;99575.11;108384;1283;22285;-54
2022/01/27 04:58:54;;;;;;;14.90;6.90;;;;;;;-5.35;70.62;99576.05;108305;1285;23462;-54
2022/01/27 05:01:30;;;;;;;15.40;7.90;;;;;;;-5.36;70.62;99574.19;108317;1283;137761;-54
2022/01/27 05:04:08;;;;;;;16.10;7.10;;;;;;;-5.38;70.51;99571.18;108364;1283;22494;-54
2022/01/27 05:06:36;;;;;;;13.90;7.70;;;;;;;-5.41;70.42;99565.52;108296;1283;137998;-54
2022/01/27 05:09:09;;;;;;;27.20;14.00;;;;;;;-5.45;70.19;99565.73;108373;1284;23294;-54
2022/01/27 05:11:47;;;;;;;34.40;17.00;;;;;;;-5.50;70.34;99568.88;108280;1283;139425;-54
2022/01/27 05:16:52;;;;;;;19.40;10.30;;;;;;;-5.52;70.95;99573.17;108390;1284;22514;-54
2022/01/27 05:19:20;;;;;;;13.90;8.60;;;;;;;-5.52;71.13;99572.27;108311;1283;138708;-54
2022/01/27 05:21:48;;;;;;;22.00;11.00;;;;;;;-5.51;71.10;99576.23;109068;1277;22659;-54
2022/01/27 05:24:21;;;;;;;13.50;8.30;;;;;;;-5.53;71.33;99573.59;108992;1277;138355;-54
2022/01/27 05:26:49;;;;;;;17.90;8.50;;;;;;;-5.53;71.29;99575.41;109051;1277;22585;-54
2022/01/27 05:29:17;;;;;;;13.80;7.50;;;;;;;-5.53;71.38;99577.52;109011;1277;138583;-55
2022/01/27 05:31:44;;;;;;;13.40;8.00;;;;;;;-5.53;71.47;99575.61;108971;1279;22521;-55
2022/01/27 05:34:13;;;;;;;19.00;9.40;;;;;;;-5.52;71.59;99573.03;109080;1277;23184;-54
2022/01/27 05:36:41;;;;;;;21.60;11.80;;;;;;;-5.52;71.84;99570.35;109028;1277;138307;-54
2022/01/27 05:39:09;;;;;;;24.90;11.90;;;;;;;-5.50;72.14;99570.66;109130;1277;22534;-54
2022/01/27 05:41:37;;;;;;;42.80;17.90;;;;;;;-5.48;72.26;99568.98;108990;1277;138770;-54
2022/01/27 05:44:05;;;;;;;110.70;45.90;;;;;;;-5.46;72.31;99572.00;109074;1277;22450;-54
2022/01/27 05:46:35;;;;;;;134.40;59.50;;;;;;;-5.45;72.37;99573.64;109085;1277;22509;-54
2022/01/27 05:49:03;;;;;;;84.80;37.30;;;;;;;-5.45;72.56;99571.95;109027;1277;137978;-54
2022/01/27 05:51:31;;;;;;;52.60;22.70;;;;;;;-5.42;72.68;99576.86;108962;1279;23183;-54
2022/01/27 05:54:01;;;;;;;40.40;16.40;;;;;;;-5.41;72.70;99571.85;108972;1277;139437;-54
2022/01/27 05:56:29;;;;;;;28.50;14.80;;;;;;;-5.40;72.73;99572.86;108995;1278;22472;-54
2022/01/27 05:58:57;;;;;;;23.80;11.80;;;;;;;-5.40;72.95;99570.20;109115;1277;22557;-54
2022/01/27 06:01:26;;;;;;;21.50;11.00;;;;;;;-5.41;72.97;99568.45;108975;1277;137747;-54
2022/01/27 06:03:54;;;;;;;23.20;11.50;;;;;;;-5.40;73.10;99573.02;108991;1279;23386;-54
2022/01/27 06:06:22;;;;;;;22.30;11.70;;;;;;;-5.40;73.25;99576.52;108927;1277;138632;-54
2022/01/27 06:08:50;;;;;;;24.70;11.70;;;;;;;-5.38;73.29;99578.85;109072;1277;22454;-54
2022/01/27 06:11:18;;;;;;;23.30;10.50;;;;;;;-5.38;73.45;99574.08;108984;1277;138250;-54
2022/01/27 06:13:48;;;;;;;16.40;8.00;;;;;;;-5.32;73.63;99574.83;108949;1277;22458;-54
2022/01/27 06:16:16;;;;;;;17.50;8.10;;;;;;;-5.28;73.78;99568.39;108994;1279;23007;-54
2022/01/27 06:18:45;;;;;;;13.10;6.50;;;;;;;-5.24;73.96;99569.05;108932;1277;138156;-54
2022/01/27 06:21:13;;;;;;;17.20;8.90;;;;;;;-5.23;73.91;99559.58;108972;1278;23389;-54
2022/01/27 06:23:41;;;;;;;17.00;7.80;;;;;;;-5.14;74.23;99563.06;109019;1277;138482;-54
2022/01/27 06:26:09;;;;;;;19.80;9.10;;;;;;;-5.06;74.19;99561.73;109123;1277;22460;-54
2022/01/27 06:28:37;;;;;;;20.40;8.90;;;;;;;-5.00;74.19;99560.55;109122;1277;22471;-54
2022/01/27 06:31:05;;;;;;;19.90;9.90;;;;;;;-4.92;74.30;99561.00;108890;1279;138087;-54
2022/01/27 06:33:34;;;;;;;19.10;9.40;;;;;;;-4.85;74.18;99552.14;109106;1277;22557;-54
2022/01/27 06:36:02;;;;;;;20.60;10.30;;;;;;;-4.79;74.13;99548.52;108822;1279;137457;-54
2022/01/27 06:38:30;;;;;;;19.10;9.60;;;;;;;-4.74;74.21;99542.31;109005;1279;22469;-55
2022/01/27 06:40:58;;;;;;;16.60;9.20;;;;;;;-4.70;74.17;99533.13;105684;1277;24226;-54
2022/01/27 06:43:26;;;;;;;22.00;11.00;;;;;;;-4.64;74.27;99538.14;104460;1278;138383;-54
2022/01/27 06:45:54;;;;;;;21.70;9.90;;;;;;;-4.58;74.25;99531.38;104523;1280;22564;-55
2022/01/27 06:48:22;;;;;;;17.30;9.00;;;;;;;-4.52;74.33;99538.24;108781;1277;138836;-54
2022/01/27 06:50:52;;;;;;;20.40;10.70;;;;;;;-4.47;74.34;99538.93;108948;1279;22550;-55
2022/01/27 06:53:21;;;;;;;19.30;10.00;;;;;;;-4.42;74.43;99528.64;108924;1277;139254;-54
2022/01/27 06:55:49;;;;;;;20.90;9.90;;;;;;;-4.38;74.53;99525.66;109053;1277;22520;-55
2022/01/27 06:58:17;;;;;;;24.70;10.20;;;;;;;-4.33;74.54;99527.95;109053;1277;22542;-54
2022/01/27 07:00:45;;;;;;;20.60;10.10;;;;;;;-4.31;74.74;99520.48;108821;1277;139998;-55
2022/01/27 07:03:13;;;;;;;28.70;12.50;;;;;;;-4.24;74.61;99523.36;109063;1277;22249;-54
2022/01/27 07:05:42;;;;;;;26.20;10.80;;;;;;;-4.19;74.68;99520.52;108929;1277;138913;-54
2022/01/27 07:08:10;;;;;;;21.50;10.50;;;;;;;-4.15;74.77;99517.68;109130;1277;22478;-54
2022/01/27 07:10:38;;;;;;;22.70;9.80;;;;;;;-4.10;74.75;99515.23;109127;1277;22505;-54
2022/01/27 07:13:06;;;;;;;24.20;10.50;;;;;;;-4.04;74.78;99515.88;108802;1278;138235;-54
2022/01/27 07:15:34;;;;;;;23.50;10.60;;;;;;;-3.98;74.87;99513.05;109000;1278;22541;-54
2022/01/27 07:18:03;;;;;;;22.70;10.90;;;;;;;-3.90;74.94;99512.06;108835;1280;138274;-54
2022/01/27 07:20:31;;;;;;;20.50;11.40;;;;;;;-3.83;74.86;99515.19;108881;1279;22338;-54
2022/01/27 07:22:59;;;;;;;20.10;10.80;;;;;;;-3.78;74.80;99510.67;109152;1277;22451;-55
2022/01/27 07:25:30;;;;;;;18.10;9.60;;;;;;;-3.70;74.77;99513.42;108807;1280;138571;-54
2022/01/27 07:27:58;;;;;;;23.10;10.50;;;;;;;-3.66;74.76;99510.77;109142;1277;22687;-54
2022/01/27 07:30:26;;;;;;;19.70;10.30;;;;;;;-3.61;74.62;99505.92;109038;1277;138698;-54
2022/01/27 07:32:54;;;;;;;19.40;10.00;;;;;;;-3.57;74.55;99508.05;108922;1278;23299;-54
2022/01/27 07:35:22;;;;;;;22.70;11.10;;;;;;;-3.57;74.47;99497.58;109057;1277;138287;-54
2022/01/27 07:37:50;;;;;;;20.60;10.60;;;;;;;-3.53;74.71;99497.34;108922;1280;22516;-55
2022/01/27 07:40:18;;;;;;;21.90;10.60;;;;;;;-3.52;74.63;99494.67;108943;1279;22492;-56
2022/01/27 07:43:09;;;;;;;20.10;10.80;;;;;;;-3.50;74.68;99495.54;108819;1280;139032;-56
2022/01/27 07:45:37;;;;;;;24.80;12.30;;;;;;;-3.48;74.54;99495.91;109114;1277;22585;-56
2022/01/27 07:48:05;;;;;;;20.40;11.70;;;;;;;-3.45;74.83;99495.59;109011;1277;137536;-56
2022/01/27 07:50:34;;;;;;;19.70;11.40;;;;;;;-3.43;74.77;99496.41;109017;1280;22453;-56
2022/01/27 07:53:02;;;;;;;23.50;11.30;;;;;;;-3.42;74.89;99487.16;108927;1281;22543;-56
2022/01/27 07:55:30;;;;;;;22.40;11.70;;;;;;;-3.37;75.16;99484.19;108684;1281;140006;-56
2022/01/27 07:57:57;;;;;;;20.40;11.40;;;;;;;-3.32;75.06;99483.65;108978;1279;23283;-55
2022/01/27 08:00:25;;;;;;;22.30;10.50;;;;;;;-3.28;75.24;99482.73;108828;1279;138274;-56
2022/01/27 08:02:53;;;;;;;19.60;10.70;;;;;;;-3.24;75.21;99486.02;109070;1277;22500;-56
2022/01/27 08:05:41;;;;;;;26.60;12.00;;;;;;;-3.19;75.23;99485.52;108841;1279;139506;-56
2022/01/27 08:08:10;;;;;;;22.70;11.70;;;;;;;-3.15;75.25;99485.22;108971;1277;23294;-56
2022/01/27 08:10:38;;;;;;;27.70;14.90;;;;;;;-3.12;75.19;99485.25;109160;1277;22444;-56
2022/01/27 08:13:07;;;;;;;34.20;17.20;;;;;;;-3.08;75.21;99480.55;109005;1277;140280;-56
2022/01/27 08:15:35;;;;;;;26.80;13.90;;;;;;;-3.06;75.13;99473.26;108995;1277;23399;-56
2022/01/27 08:18:04;;;;;;;27.00;14.70;;;;;;;-3.06;75.12;99473.29;108991;1277;139042;-56
2022/01/27 08:20:33;;;;;;;26.10;13.90;;;;;;;-3.06;75.06;99474.26;108959;1277;22462;-56
2022/01/27 08:23:01;;;;;;;22.00;12.00;;;;;;;-3.04;75.22;99473.35;109123;1277;22492;-56
2022/01/27 08:25:29;;;;;;;22.90;12.50;;;;;;;-3.00;75.38;99473.09;109054;1277;137490;-56
2022/01/27 08:28:00;;;;;;;26.50;14.00;;;;;;;-2.95;75.40;99474.05;108947;1277;22579;-56
2022/01/27 08:30:35;;;;;;;22.10;12.30;;;;;;;-2.91;75.42;99472.47;108863;1277;137791;-57
2022/01/27 08:33:13;;;;;;;26.90;14.30;;;;;;;-2.88;75.79;99467.65;108959;1278;22436;-56
2022/01/27 08:35:41;;;;;;;25.60;13.60;;;;;;;-2.84;75.67;99472.29;108808;1278;140219;-57
2022/01/27 08:38:09;;;;;;;26.40;13.20;;;;;;;-2.80;75.86;99470.52;109105;1277;22491;-57
2022/01/27 08:40:37;;;;;;;47.20;21.80;;;;;;;-2.78;75.89;99459.21;109117;1277;22474;-54
2022/01/27 08:43:05;;;;;;;45.50;19.00;;;;;;;-2.75;76.12;99450.89;108793;1277;138458;-54
2022/01/27 08:45:33;;;;;;;33.60;14.70;;;;;;;-2.69;76.03;99454.45;109178;1277;22457;-54
2022/01/27 08:48:02;;;;;;;34.40;15.90;;;;;;;-2.64;75.99;99457.23;109007;1277;138305;-54
2022/01/27 08:50:31;;;;;;;29.70;15.10;;;;;;;-2.59;76.04;99454.73;108952;1279;22442;-55
2022/01/27 08:52:59;;;;;;;46.70;22.50;;;;;;;-2.54;76.10;99453.73;108957;1279;23315;-54
2022/01/27 08:55:28;;;;;;;36.00;17.40;;;;;;;-2.46;76.26;99455.98;108828;1277;138950;-54
2022/01/27 08:57:57;;;;;;;27.80;14.30;;;;;;;-2.43;76.11;99450.36;109116;1277;22520;-53
2022/01/27 09:00:25;;;;;;;27.60;14.80;;;;;;;-2.39;76.27;99450.05;109032;1277;138644;-53
2022/01/27 09:02:53;;;;;;;25.20;13.20;;;;;;;-2.34;76.29;99444.82;109028;1277;22445;-54
2022/01/27 09:05:21;;;;;;;28.90;14.20;;;;;;;-2.29;76.23;99441.10;108855;1277;138117;-53
2022/01/27 09:07:55;;;;;;;25.70;13.50;;;;;;;-2.27;76.18;99435.44;108969;1277;22480;-54
2022/01/27 09:10:32;;;;;;;26.10;14.00;;;;;;;-2.23;76.25;99432.95;108976;1277;22673;-54
2022/01/27 09:13:01;;;;;;;24.10;13.30;;;;;;;-2.23;76.27;99428.26;108905;1277;139044;-54
2022/01/27 09:15:29;;;;;;;24.30;14.00;;;;;;;-2.22;76.30;99421.70;108760;1280;23692;-54
2022/01/27 09:18:17;;;;;;;29.10;14.30;;;;;;;-2.23;76.67;99420.95;108870;1277;138699;-54
2022/01/27 09:21:16;;;;;;;28.30;13.30;;;;;;;-2.18;76.71;99418.62;106911;1275;22595;-52
2022/01/27 09:23:45;;;;;;;26.40;13.00;;;;;;;-2.14;76.98;99415.84;104532;1279;139111;-51
2022/01/27 09:26:38;;;;;;;23.70;13.50;;;;;;;-2.08;77.18;99419.84;104916;1280;25119;-52
2022/01/27 09:29:02;;;;;;;23.90;13.20;;;;;;;-2.02;77.30;99424.70;104949;1280;23247;-52
2022/01/27 09:31:30;;;;;;;30.70;15.30;;;;;;;-1.96;77.37;99419.92;108772;1280;138652;-53
2022/01/27 09:33:58;;;;;;;30.50;14.10;;;;;;;-1.89;77.44;99415.53;108894;1279;23604;-52
2022/01/27 09:36:26;;;;;;;28.50;14.40;;;;;;;-1.85;77.52;99405.93;108786;1277;137499;-53
2022/01/27 09:38:54;;;;;;;31.90;15.00;;;;;;;-1.79;77.48;99404.89;108784;1280;23078;-53
2022/01/27 09:41:22;;;;;;;29.20;15.80;;;;;;;-1.75;77.53;99404.36;108733;1280;137871;-53
2022/01/27 09:43:53;;;;;;;25.80;14.20;;;;;;;-1.73;77.49;99406.69;108669;1280;22557;-53
2022/01/27 09:46:22;;;;;;;28.10;14.70;;;;;;;-1.71;77.48;99405.27;108855;1280;22474;-53
2022/01/27 09:48:51;;;;;;;28.20;16.50;;;;;;;-1.70;77.68;99401.89;108682;1280;138661;-52
2022/01/27 09:53:48;;;;;;;28.50;14.90;;;;;;;-1.63;77.77;99397.85;108732;1280;138430;-52
2022/01/27 09:56:17;;;;;;;27.10;14.00;;;;;;;-1.59;77.60;99396.01;108762;1279;23236;-52
2022/01/27 09:59:04;;;;;;;28.50;15.20;;;;;;;-1.56;77.81;99394.16;108792;1280;22461;-52
2022/01/27 10:01:33;;;;;;;24.70;13.70;;;;;;;-1.53;77.93;99395.94;108697;1280;140115;-53
2022/01/27 10:04:04;;;;;;;29.30;13.80;;;;;;;-1.51;77.93;99394.45;108763;1279;23309;-52
2022/01/27 10:06:33;;;;;;;24.40;13.30;;;;;;;-1.49;77.80;99392.59;108716;1280;138454;-53
2022/01/27 10:09:24;;;;;;;28.20;13.70;;;;;;;-1.49;77.92;99384.04;108826;1280;23345;-52
2022/01/27 10:11:53;;;;;;;22.70;13.60;;;;;;;-1.48;78.08;99381.76;108698;1280;139465;-52
2022/01/27 10:14:36;;;;;;;22.60;13.20;;;;;;;-1.47;78.15;99380.38;108821;1280;22528;-52
2022/01/27 10:17:09;;;;;;;24.80;14.80;;;;;;;-1.45;78.06;99372.39;108838;1278;22461;-52
2022/01/27 10:19:37;;;;;;;25.20;14.90;;;;;;;-1.43;78.32;99364.13;108704;1280;137957;-53
2022/01/27 10:22:10;;;;;;;25.60;14.30;;;;;;;-1.41;78.36;99365.46;109123;1276;22489;-52
2022/01/27 10:24:38;;;;;;;28.20;15.50;;;;;;;-1.39;78.56;99366.98;109041;1276;137561;-52
2022/01/27 10:27:46;;;;;;;30.30;15.80;;;;;;;-1.37;78.57;99371.39;109157;1276;22415;-52
2022/01/27 10:33:02;;;;;;;30.50;17.30;;;;;;;-1.36;78.59;99369.49;109155;1276;22440;-52
2022/01/27 10:35:30;;;;;;;37.80;18.50;;;;;;;-1.38;78.52;99364.88;108930;1276;139238;-52
2022/01/27 10:38:01;;;;;;;29.60;16.50;;;;;;;-1.39;78.75;99364.11;109015;1277;22641;-53
2022/01/27 10:40:37;;;;;;;27.30;16.00;;;;;;;-1.38;78.86;99366.05;109051;1276;22553;-52
2022/01/27 10:43:07;;;;;;;31.30;16.50;;;;;;;-1.39;78.85;99361.88;109002;1276;138284;-52
2022/01/27 10:45:36;;;;;;;28.70;16.40;;;;;;;-1.40;78.84;99357.27;109137;1276;23056;-53
2022/01/27 10:48:19;;;;;;;32.00;17.70;;;;;;;-1.37;79.19;99345.89;108921;1276;140144;-53
2022/01/27 10:50:56;;;;;;;33.20;17.10;;;;;;;-1.34;79.11;99338.24;109120;1275;22481;-53
2022/01/27 10:53:46;;;;;;;28.80;17.10;;;;;;;-1.29;79.24;99339.29;109035;1276;138309;-52
2022/01/27 10:56:26;;;;;;;26.10;16.20;;;;;;;-1.25;79.27;99338.42;109032;1276;23728;-52
2022/01/27 10:58:55;;;;;;;29.80;16.40;;;;;;;-1.25;79.15;99343.54;109111;1275;22470;-52
2022/01/27 11:01:29;;;;;;;30.10;17.10;;;;;;;-1.26;79.17;99338.63;108955;1276;138638;-52
2022/01/27 11:03:59;;;;;;;34.10;18.90;;;;;;;-1.27;79.12;99338.20;109099;1276;24186;-53
2022/01/27 11:06:28;;;;;;;31.90;18.00;;;;;;;-1.26;79.12;99336.12;109019;1276;138443;-53
2022/01/27 11:08:58;;;;;;;40.30;21.70;;;;;;;-1.25;79.31;99333.21;109190;1276;25025;-53
2022/01/27 11:11:32;;;;;;;37.00;19.50;;;;;;;-1.25;79.55;99335.35;108973;1276;138268;-52
2022/01/27 11:14:00;;;;;;;38.50;21.20;;;;;;;-1.27;79.62;99325.95;109164;1275;23188;-52
2022/01/27 11:16:36;;;;;;;49.10;23.10;;;;;;;-1.23;79.70;99326.23;108900;1276;22559;-52
2022/01/27 11:19:21;;;;;;;46.60;24.20;;;;;;;-1.21;79.70;99322.70;108951;1276;139224;-53
2022/01/27 11:21:57;;;;;;;37.20;20.30;;;;;;;-1.17;79.80;99321.23;109100;1276;22471;-52
2022/01/27 11:24:32;;;;;;;40.80;23.00;;;;;;;-1.15;79.77;99324.98;109028;1276;139983;-53
2022/01/27 11:27:01;;;;;;;35.20;20.70;;;;;;;-1.12;79.69;99319.50;109106;1276;22480;-53
2022/01/27 11:29:29;;;;;;;39.00;20.50;;;;;;;-1.10;79.80;99322.75;108912;1276;141292;-52
2022/01/27 11:32:16;;;;;;;41.40;21.70;;;;;;;-1.06;79.77;99314.65;109014;1276;22399;-53
2022/01/27 11:34:49;;;;;;;29.30;16.40;;;;;;;-1.04;79.87;99306.58;109160;1275;22828;-52
2022/01/27 11:37:29;;;;;;;36.70;21.00;;;;;;;-1.03;79.89;99308.27;109055;1274;138573;-52
2022/01/27 11:40:08;;;;;;;35.80;19.90;;;;;;;-1.05;79.83;99305.08;109197;1276;22642;-52
2022/01/27 11:42:56;;;;;;;;;;;;;;;-1.07;79.86;99300.35;109048;1276;140032;-53
2022/01/27 11:45:28;;;;;;;39.30;19.90;;;;;;;-1.09;80.00;99291.42;109135;1276;22568;-53
2022/01/27 11:47:59;;;;;;;42.60;23.10;;;;;;;-1.09;80.20;99291.09;109047;1275;139705;-52
2022/01/27 11:50:33;;;;;;;42.30;22.00;;;;;;;-1.08;80.44;99287.80;109132;1275;22443;-52
2022/01/27 11:53:12;;;;;;;36.80;19.70;;;;;;;-1.05;80.49;99288.38;109192;1274;22530;-52
2022/01/27 11:55:44;;;;;;;36.10;21.30;;;;;;;-1.02;80.62;99288.29;109048;1276;138114;-52
2022/01/27 11:58:22;;;;;;;39.30;21.20;;;;;;;-1.00;80.69;99286.23;109142;1276;22543;-53
2022/01/27 12:01:23;;;;;;;36.30;20.50;;;;;;;-0.96;81.04;99284.68;109056;1276;138359;-53
2022/01/27 12:04:05;;;;;;;41.90;21.80;;;;;;;-0.89;81.20;99283.48;108322;1282;22572;-53
2022/01/27 12:06:36;;;;;;;43.70;21.90;;;;;;;-0.86;81.43;99278.77;108255;1282;142438;-52
2022/01/27 12:09:18;;;;;;;36.30;20.70;;;;;;;-0.77;81.23;99284.47;108298;1282;22568;-53